Time;durP1;ratioP1;P1;durP2;ratioP2;P2;SDS_P1;SDS_P2;PMS_P1;PMS_P2;Temp;Humidity;BMP_temperature;BMP_pressure;BME280_temperature;BME280_humidity;BME280_pressure;Samples;Min_cycle;Max_cycle;Signal;HPM_P1;HPM_P2
2024/01/03 00:00:56;;;;;;;16.35;9.15;;;5.60;1.00;;;;;;5220915;28;20036;-52
2024/01/03 00:03:28;;;;;;;16.70;9.63;;;5.50;1.00;;;;;;5208846;28;20033;-51
2024/01/03 00:06:00;;;;;;;16.20;9.25;;;5.40;1.00;;;;;;5227322;28;20032;-52
2024/01/03 00:08:36;;;;;;;16.17;9.60;;;5.40;1.00;;;;;;5193154;28;20023;-50
2024/01/03 00:11:15;;;;;;;17.58;10.15;;;5.40;1.00;;;;;;5224887;28;20309;-50
2024/01/03 00:14:07;;;;;;;14.85;9.63;;;5.30;1.00;;;;;;5224564;28;20198;-49
2024/01/03 00:16:41;;;;;;;13.20;8.77;;;5.30;1.00;;;;;;5212665;28;20021;-50
2024/01/03 00:19:16;;;;;;;12.50;8.63;;;5.30;1.00;;;;;;5205875;28;20341;-52
2024/01/03 00:21:53;;;;;;;13.38;8.88;;;5.40;1.00;;;;;;5214336;28;20045;-51
2024/01/03 00:24:28;;;;;;;14.55;9.40;;;5.40;1.00;;;;;;5210537;28;20021;-52
2024/01/03 00:26:59;;;;;;;18.10;9.38;;;5.40;1.00;;;;;;5227984;28;20029;-52
2024/01/03 00:29:53;;;;;;;15.38;9.50;;;5.50;1.00;;;;;;5227923;28;20341;-51
2024/01/03 00:32:24;;;;;;;15.45;9.65;;;5.60;1.00;;;;;;5224918;28;20027;-51
2024/01/03 00:34:57;;;;;;;15.35;8.73;;;5.60;1.00;;;;;;5227993;28;20039;-51
2024/01/03 00:37:34;;;;;;;17.35;9.90;;;5.60;1.00;;;;;;5210130;28;20213;-53
2024/01/03 00:40:33;;;;;;;13.25;8.80;;;5.60;1.00;;;;;;5227274;28;20217;-52
2024/01/03 00:43:06;;;;;;;15.70;9.55;;;5.60;1.00;;;;;;5227811;28;20083;-51
2024/01/03 00:45:39;;;;;;;13.35;8.68;;;5.50;1.00;;;;;;5206433;28;20353;-51
2024/01/03 00:48:11;;;;;;;15.57;9.50;;;5.50;1.00;;;;;;5227691;28;20033;-49
2024/01/03 00:50:42;;;;;;;20.13;9.77;;;5.50;1.00;;;;;;5208289;28;20035;-49
2024/01/03 00:53:13;;;;;;;13.90;9.57;;;5.70;1.00;;;;;;5228356;28;20048;-52
2024/01/03 00:55:50;;;;;;;14.20;9.43;;;5.60;1.00;;;;;;5214003;28;20037;-50
2024/01/03 00:58:21;;;;;;;14.75;8.27;;;5.60;1.00;;;;;;5189067;28;20321;-50
2024/01/03 01:00:53;;;;;;;10.98;6.72;;;5.70;1.00;;;;;;5202954;28;20043;-51
2024/01/03 01:03:27;;;;;;;8.60;5.93;;;5.80;1.00;;;;;;5225155;28;20036;-52
2024/01/03 01:06:00;;;;;;;4.43;2.55;;;6.10;1.00;;;;;;5208431;28;20018;-52
2024/01/03 01:08:34;;;;;;;3.93;2.83;;;6.60;99.90;;;;;;5206551;28;20036;-51
2024/01/03 01:11:08;;;;;;;1.38;1.02;;;6.90;1.00;;;;;;5206903;28;20247;-53
2024/01/03 01:13:41;;;;;;;1.00;1.00;;;7.20;99.90;;;;;;5207501;28;20032;-49
2024/01/03 01:16:13;;;;;;;1.17;0.93;;;7.50;99.90;;;;;;5227480;28;20542;-49
2024/01/03 01:18:47;;;;;;;0.75;0.75;;;7.90;1.00;;;;;;5187375;28;20233;-52
2024/01/03 01:21:21;;;;;;;0.93;0.80;;;8.10;99.90;;;;;;5205199;28;20324;-49
2024/01/03 01:23:57;;;;;;;1.63;1.30;;;8.20;99.90;;;;;;5246499;28;20020;-49
2024/01/03 01:26:31;;;;;;;2.17;1.08;;;8.10;1.00;;;;;;5184672;28;20021;-48
2024/01/03 01:29:02;;;;;;;1.13;0.90;;;8.10;99.90;;;;;;5231566;28;20029;-47
2024/01/03 01:31:35;;;;;;;0.70;0.70;;;8.20;99.90;;;;;;5222155;28;20021;-47
2024/01/03 01:34:07;;;;;;;1.05;1.05;;;8.30;99.90;;;;;;5217492;28;20066;-47
2024/01/03 01:36:40;;;;;;;2.08;1.10;;;8.30;99.90;;;;;;5230372;28;20037;-47
2024/01/03 01:39:12;;;;;;;1.23;1.10;;;8.30;99.90;;;;;;5231521;28;20344;-48
2024/01/03 01:41:45;;;;;;;1.85;0.98;;;8.20;99.90;;;;;;5195903;28;20045;-48
2024/01/03 01:44:16;;;;;;;1.63;1.17;;;8.20;99.90;;;;;;5223186;28;20314;-49
2024/01/03 01:46:50;;;;;;;1.67;0.93;;;8.10;99.90;;;;;;5206659;28;20041;-51
2024/01/03 01:49:26;;;;;;;1.13;1.02;;;8.10;99.90;;;;;;5210820;28;20021;-51
2024/01/03 01:51:58;;;;;;;1.42;0.80;;;8.10;99.90;;;;;;5232231;28;20044;-51
2024/01/03 01:54:32;;;;;;;1.23;1.00;;;8.00;99.90;;;;;;5241556;28;20217;-50
2024/01/03 01:57:03;;;;;;;1.40;1.08;;;8.00;99.90;;;;;;5209708;28;20040;-51
2024/01/03 01:59:38;;;;;;;0.98;0.98;;;8.10;99.90;;;;;;5217043;28;20047;-50
2024/01/03 02:02:10;;;;;;;1.20;1.10;;;8.20;99.90;;;;;;5216355;28;20338;-52
2024/01/03 02:04:42;;;;;;;0.88;0.88;;;8.30;99.90;;;;;;5217593;28;20033;-52
2024/01/03 02:07:17;;;;;;;0.85;0.85;;;8.20;99.90;;;;;;5230920;28;20039;-49
2024/01/03 02:09:53;;;;;;;1.20;1.13;;;8.40;99.90;;;;;;5229732;28;20043;-55
2024/01/03 02:12:30;;;;;;;0.80;0.80;;;8.60;99.90;;;;;;5211384;28;20235;-50
2024/01/03 02:15:01;;;;;;;0.93;0.88;;;9.00;99.90;;;;;;5229031;28;20036;-51
2024/01/03 02:17:38;;;;;;;0.90;0.75;;;9.00;99.90;;;;;;5209931;28;20033;-50
2024/01/03 02:20:12;;;;;;;1.33;0.80;;;8.90;99.90;;;;;;5209517;28;20029;-50
2024/01/03 02:22:43;;;;;;;0.70;0.70;;;8.70;99.90;;;;;;5224800;28;20029;-50
2024/01/03 02:25:17;;;;;;;0.77;0.70;;;8.60;99.90;;;;;;5211636;28;20029;-50
2024/01/03 02:27:50;;;;;;;1.08;1.08;;;8.60;86.30;;;;;;5229556;28;20063;-52
2024/01/03 02:30:25;;;;;;;0.77;0.77;;;8.50;99.90;;;;;;5208523;28;20028;-50
2024/01/03 02:32:57;;;;;;;0.80;0.80;;;8.40;99.90;;;;;;5211919;28;20253;-50
2024/01/03 02:35:31;;;;;;;1.02;0.90;;;8.20;99.90;;;;;;5211811;28;20341;-52
2024/01/03 02:38:02;;;;;;;0.65;0.60;;;8.20;99.90;;;;;;5208965;28;20353;-52
2024/01/03 02:40:33;;;;;;;0.65;0.65;;;8.50;99.90;;;;;;5209164;28;20055;-50
2024/01/03 02:43:07;;;;;;;1.02;0.90;;;8.60;99.90;;;;;;5208013;28;20040;-52
2024/01/03 02:45:39;;;;;;;0.95;0.88;;;8.60;99.90;;;;;;5221945;28;20037;-52
2024/01/03 02:48:17;;;;;;;0.50;0.50;;;8.50;99.90;;;;;;5229975;28;20037;-52
2024/01/03 02:50:48;;;;;;;0.68;0.68;;;8.80;99.90;;;;;;5208547;28;20029;-52
2024/01/03 02:53:23;;;;;;;0.50;0.50;;;9.00;99.90;;;;;;5229634;28;20256;-53
2024/01/03 02:55:57;;;;;;;1.52;0.80;;;9.40;99.90;;;;;;5214624;28;20321;-54
2024/01/03 02:58:28;;;;;;;;;;;9.70;99.90;;;;;;5191270;28;20033;-52
2024/01/03 03:01:04;;;;;;;0.60;0.60;;;9.80;99.90;;;;;;5219711;28;20410;-54
2024/01/03 03:03:35;;;;;;;0.73;0.73;;;10.00;99.90;;;;;;5209399;28;20462;-54
2024/01/03 03:06:10;;;;;;;0.70;0.70;;;10.20;99.90;;;;;;5224545;28;20029;-56
2024/01/03 03:08:42;;;;;;;0.80;0.80;;;10.30;99.90;;;;;;5213252;28;20237;-58
2024/01/03 03:11:18;;;;;;;0.60;0.60;;;10.40;99.90;;;;;;5235824;28;20248;-56
2024/01/03 03:13:54;;;;;;;0.60;0.60;;;10.60;99.90;;;;;;5223328;28;20035;-48
2024/01/03 03:16:25;;;;;;;0.60;0.60;;;10.80;99.90;;;;;;5213065;28;20029;-44
2024/01/03 03:18:56;;;;;;;0.73;0.73;;;10.60;99.90;;;;;;5228382;28;20212;-46
2024/01/03 03:21:28;;;;;;;0.90;0.90;;;10.70;99.90;;;;;;5215558;28;20032;-46
2024/01/03 03:24:05;;;;;;;0.63;0.63;;;10.90;99.90;;;;;;5223650;28;20043;-45
2024/01/03 03:26:36;;;;;;;0.60;0.60;;;10.90;99.90;;;;;;5224555;28;20036;-43
2024/01/03 03:29:10;;;;;;;0.73;0.70;;;11.00;99.90;;;;;;5229067;28;20028;-45
2024/01/03 03:31:41;;;;;;;0.95;0.80;;;10.80;99.90;;;;;;5225353;28;20033;-44
2024/01/03 03:34:15;;;;;;;0.60;0.60;;;10.60;99.90;;;;;;5228086;28;20442;-41
2024/01/03 03:36:48;;;;;;;0.65;0.55;;;10.70;99.90;;;;;;5228073;28;20020;-38
2024/01/03 03:39:20;;;;;;;0.70;0.70;;;10.90;99.90;;;;;;5210834;28;20233;-38
2024/01/03 03:41:51;;;;;;;0.63;0.63;;;10.90;99.90;;;;;;5227252;28;20040;-40
2024/01/03 03:44:22;;;;;;;0.68;0.68;;;10.90;99.90;;;;;;5228649;28;20031;-42
2024/01/03 03:46:55;;;;;;;0.65;0.65;;;11.00;99.90;;;;;;5211195;28;20340;-47
2024/01/03 03:49:27;;;;;;;0.52;0.52;;;11.00;99.90;;;;;;5227874;28;20051;-65
2024/01/03 03:52:01;;;;;;;0.45;0.45;;;11.00;99.90;;;;;;5224803;28;20040;-67
2024/01/03 03:54:34;;;;;;;0.70;0.70;;;11.00;92.60;;;;;;5225112;28;20033;-67
2024/01/03 03:57:08;;;;;;;0.47;0.47;;;10.90;63.40;;;;;;5228372;28;20378;-69
2024/01/03 03:59:43;;;;;;;0.60;0.60;;;11.00;34.90;;;;;;5226429;28;20484;-69
2024/01/03 04:02:15;;;;;;;1.02;0.90;;;10.90;9.20;;;;;;5175726;28;20045;-61
2024/01/03 04:04:52;;;;;;;;;;;10.90;6.30;;;;;;5190173;28;20317;-57
2024/01/03 04:07:31;;;;;;;0.50;0.50;;;10.90;1.00;;;;;;5209873;28;19932;-52
2024/01/03 04:10:02;;;;;;;0.70;0.70;;;11.00;1.00;;;;;;5214936;28;20029;-50
2024/01/03 04:12:38;;;;;;;0.82;0.82;;;11.00;1.00;;;;;;5228900;28;20033;-47
2024/01/03 04:15:09;;;;;;;0.70;0.70;;;11.10;1.00;;;;;;5225120;28;20043;-45
2024/01/03 04:17:41;;;;;;;0.70;0.70;;;11.00;1.00;;;;;;5190579;28;20055;-43
2024/01/03 04:20:12;;;;;;;0.50;0.50;;;11.10;1.00;;;;;;5207467;28;20033;-40
2024/01/03 04:22:45;;;;;;;0.63;0.63;;;11.20;1.00;;;;;;5222360;28;20071;-38
2024/01/03 04:25:20;;;;;;;0.90;0.90;;;11.20;1.00;;;;;;5238606;28;20035;-37
2024/01/03 04:27:54;;;;;;;0.70;0.70;;;11.10;1.00;;;;;;5217628;28;20051;-37
2024/01/03 04:30:27;;;;;;;0.50;0.50;;;11.10;1.00;;;;;;5207814;28;20040;-38
2024/01/03 04:33:04;;;;;;;0.60;0.60;;;10.90;1.00;;;;;;5207493;28;20056;-40
2024/01/03 04:35:39;;;;;;;0.88;0.80;;;10.80;1.00;;;;;;5206809;28;20047;-41
2024/01/03 04:38:15;;;;;;;0.80;0.80;;;10.70;1.00;;;;;;5207194;28;20033;-43
2024/01/03 04:40:52;;;;;;;0.93;0.70;;;11.10;1.00;;;;;;5210053;28;20353;-46
2024/01/03 04:43:26;;;;;;;0.70;0.70;;;11.20;1.00;;;;;;5210824;28;20048;-45
2024/01/03 04:45:57;;;;;;;1.00;1.00;;;11.00;1.00;;;;;;5222762;28;20032;-42
2024/01/03 04:48:30;;;;;;;0.40;0.40;;;11.10;1.00;;;;;;5189255;28;20226;-36
2024/01/03 04:51:09;;;;;;;0.40;0.40;;;11.20;1.00;;;;;;5213780;28;20363;-35
2024/01/03 04:53:40;;;;;;;1.17;0.77;;;11.40;1.00;;;;;;5231316;28;20052;-35
2024/01/03 04:56:14;;;;;;;0.65;0.55;;;11.30;1.00;;;;;;5213288;28;20216;-34
2024/01/03 04:58:48;;;;;;;;;;;11.10;1.00;;;;;;5230969;28;20033;-32
2024/01/03 05:01:24;;;;;;;0.70;0.70;;;11.30;99.90;;;;;;5207624;28;19909;-33
2024/01/03 05:03:57;;;;;;;0.70;0.70;;;11.10;99.90;;;;;;5231644;28;20043;-30
2024/01/03 05:06:31;;;;;;;0.73;0.73;;;11.00;99.90;;;;;;5231589;28;20045;-31
2024/01/03 05:09:03;;;;;;;0.88;0.85;;;10.80;99.90;;;;;;5212695;28;20029;-31
2024/01/03 05:11:34;;;;;;;0.60;0.60;;;10.70;99.90;;;;;;5231694;28;20033;-31
2024/01/03 05:14:05;;;;;;;1.17;0.70;;;10.90;99.90;;;;;;5231618;28;20033;-31
2024/01/03 05:16:41;;;;;;;1.45;0.70;;;11.20;99.90;;;;;;5227897;28;20028;-29
2024/01/03 05:19:14;;;;;;;1.17;0.70;;;11.30;99.90;;;;;;5212982;28;20067;-29
2024/01/03 05:21:51;;;;;;;0.95;0.60;;;11.20;99.90;;;;;;5229142;28;20347;-29
2024/01/03 05:24:27;;;;;;;0.43;0.43;;;11.40;99.90;;;;;;5214221;28;20033;-30
2024/01/03 05:27:00;;;;;;;0.60;0.60;;;11.50;99.90;;;;;;5229502;28;20033;-30
2024/01/03 05:29:32;;;;;;;1.30;1.10;;;11.40;99.90;;;;;;5230992;28;20025;-30
2024/01/03 05:32:08;;;;;;;0.60;0.60;;;11.50;99.90;;;;;;5209035;28;20430;-30
2024/01/03 05:34:42;;;;;;;1.20;1.00;;;11.60;99.90;;;;;;5230862;28;20043;-30
2024/01/03 05:37:16;;;;;;;0.98;0.98;;;11.40;92.40;;;;;;5231123;28;20332;-30
2024/01/03 05:39:52;;;;;;;0.75;0.75;;;11.40;3.10;;;;;;5230628;28;20221;-32
2024/01/03 05:42:24;;;;;;;0.50;0.50;;;11.50;1.00;;;;;;5214116;28;20206;-29
2024/01/03 05:44:55;;;;;;;0.60;0.60;;;11.60;1.00;;;;;;5231010;28;20328;-29
2024/01/03 05:47:30;;;;;;;0.68;0.68;;;11.50;1.00;;;;;;5226762;28;20037;-29
2024/01/03 05:50:04;;;;;;;0.70;0.70;;;11.60;1.00;;;;;;5212870;28;20033;-31
2024/01/03 05:52:46;;;;;;;0.88;0.88;;;11.60;1.00;;;;;;5203128;28;20033;-31
2024/01/03 05:55:17;;;;;;;0.63;0.63;;;11.50;1.00;;;;;;5205824;28;20041;-31
2024/01/03 05:57:48;;;;;;;0.60;0.60;;;11.40;1.00;;;;;;5208906;28;20063;-31
2024/01/03 06:00:22;;;;;;;0.70;0.70;;;11.40;1.00;;;;;;5208555;28;20043;-31
2024/01/03 06:02:55;;;;;;;0.93;0.90;;;11.40;1.00;;;;;;5211949;28;20041;-31
2024/01/03 06:05:32;;;;;;;1.60;0.80;;;11.30;1.00;;;;;;5207892;28;20272;-31
2024/01/03 06:08:07;;;;;;;0.70;0.70;;;11.10;1.00;;;;;;5176219;28;20037;-31
2024/01/03 06:10:38;;;;;;;0.77;0.77;;;11.00;1.00;;;;;;5209359;28;20326;-31
2024/01/03 06:13:15;;;;;;;0.60;0.60;;;11.00;1.00;;;;;;5189053;28;20041;-32
2024/01/03 06:15:51;;;;;;;0.90;0.90;;;11.00;1.00;;;;;;5184110;28;20071;-31
2024/01/03 06:18:22;;;;;;;1.23;0.90;;;11.00;5.20;;;;;;5191742;28;20045;-31
2024/01/03 06:21:01;;;;;;;0.60;0.60;;;10.90;1.00;;;;;;5210745;28;20033;-31
2024/01/03 06:23:37;;;;;;;2.17;0.60;;;10.80;1.00;;;;;;5229831;28;20033;-30
2024/01/03 06:26:10;;;;;;;0.90;0.90;;;10.80;5.10;;;;;;5204396;28;20497;-30
2024/01/03 06:28:46;;;;;;;0.85;0.85;;;10.80;1.00;;;;;;5187994;28;20334;-30
2024/01/03 06:31:23;;;;;;;0.70;0.70;;;10.80;1.00;;;;;;5173369;28;20034;-30
2024/01/03 06:33:54;;;;;;;0.55;0.55;;;10.90;1.00;;;;;;5209031;28;20291;-30
2024/01/03 06:36:28;;;;;;;0.70;0.70;;;11.20;1.00;;;;;;5191250;28;20045;-30
2024/01/03 06:38:59;;;;;;;0.90;0.90;;;11.30;1.00;;;;;;5191213;28;20033;-31
2024/01/03 06:41:33;;;;;;;0.80;0.80;;;11.50;1.00;;;;;;5209079;28;20311;-31
2024/01/03 06:44:10;;;;;;;2.22;0.80;;;11.50;1.00;;;;;;5207984;28;20209;-31
2024/01/03 06:46:43;;;;;;;0.98;0.98;;;11.50;1.00;;;;;;5185448;28;20052;-33
2024/01/03 06:49:17;;;;;;;0.60;0.60;;;11.50;1.00;;;;;;5208926;28;20031;-30
2024/01/03 06:51:48;;;;;;;0.75;0.75;;;11.60;1.00;;;;;;5199598;28;20037;-31
2024/01/03 06:54:19;;;;;;;1.48;0.93;;;11.40;1.00;;;;;;5229399;28;20037;-31
2024/01/03 06:56:51;;;;;;;0.70;0.70;;;11.40;1.00;;;;;;5191383;28;20314;-31
2024/01/03 06:59:22;;;;;;;1.58;0.80;;;11.20;1.00;;;;;;5206218;28;20035;-31
2024/01/03 07:01:56;;;;;;;1.08;1.02;;;11.30;1.00;;;;;;5203710;28;20025;-30
2024/01/03 07:04:27;;;;;;;0.80;0.80;;;11.30;1.00;;;;;;5187268;28;20451;-31
2024/01/03 07:07:01;;;;;;;0.80;0.80;;;11.30;1.00;;;;;;5187911;28;20445;-31
2024/01/03 07:09:38;;;;;;;0.75;0.65;;;11.30;1.00;;;;;;5187529;28;20056;-31
2024/01/03 07:12:12;;;;;;;1.05;0.70;;;11.30;1.00;;;;;;5197861;28;20035;-32
2024/01/03 07:14:47;;;;;;;0.60;0.60;;;11.30;1.00;;;;;;5204102;28;20045;-32
2024/01/03 07:17:20;;;;;;;0.80;0.80;;;11.50;1.00;;;;;;5184866;28;20041;-32
2024/01/03 07:19:54;;;;;;;1.45;0.73;;;11.60;1.00;;;;;;5206861;28;20033;-32
2024/01/03 07:22:28;;;;;;;0.60;0.60;;;11.70;1.00;;;;;;5189585;28;20554;-31
2024/01/03 07:25:00;;;;;;;0.73;0.73;;;11.70;1.00;;;;;;5199015;28;20046;-31
2024/01/03 07:27:32;;;;;;;0.77;0.77;;;11.60;1.00;;;;;;5204892;28;20040;-31
2024/01/03 07:30:03;;;;;;;0.70;0.70;;;11.60;1.00;;;;;;5205786;28;20041;-31
2024/01/03 07:32:35;;;;;;;0.57;0.57;;;11.60;1.00;;;;;;5202424;28;20025;-31
2024/01/03 07:35:07;;;;;;;1.33;0.90;;;11.70;1.00;;;;;;5207421;28;20348;-31
2024/01/03 07:37:41;;;;;;;0.80;0.77;;;11.70;1.00;;;;;;5189330;28;20340;-31
2024/01/03 07:40:16;;;;;;;0.60;0.60;;;11.80;1.00;;;;;;5206195;28;20249;-31
2024/01/03 07:42:47;;;;;;;1.33;1.23;;;11.80;1.00;;;;;;5206765;28;20038;-31
2024/01/03 07:45:26;;;;;;;1.40;1.20;;;11.90;1.00;;;;;;5185978;28;20038;-34
2024/01/03 07:47:57;;;;;;;0.70;0.70;;;12.00;1.00;;;;;;5203978;28;20059;-31
2024/01/03 07:50:28;;;;;;;0.73;0.70;;;12.10;1.00;;;;;;5205742;28;20029;-31
2024/01/03 07:53:02;;;;;;;1.60;1.15;;;12.20;1.00;;;;;;5203309;28;20193;-31
2024/01/03 07:55:36;;;;;;;0.90;0.90;;;12.50;1.00;;;;;;5227895;28;20035;-31
2024/01/03 07:58:08;;;;;;;0.65;0.65;;;12.50;1.00;;;;;;5226468;28;20037;-31
2024/01/03 08:00:39;;;;;;;0.68;0.55;;;12.50;1.00;;;;;;5217108;28;20047;-31
2024/01/03 08:03:13;;;;;;;0.65;0.60;;;12.70;1.00;;;;;;5228018;28;20025;-32
2024/01/03 08:05:44;;;;;;;0.80;0.80;;;12.70;1.00;;;;;;5227487;28;20032;-32
2024/01/03 08:08:18;;;;;;;0.50;0.50;;;12.70;1.00;;;;;;5219157;28;20242;-32
2024/01/03 08:10:49;;;;;;;0.95;0.80;;;12.70;1.00;;;;;;5222948;28;20076;-32
2024/01/03 08:13:20;;;;;;;0.85;0.52;;;12.80;1.00;;;;;;5222864;28;20237;-32
2024/01/03 08:15:52;;;;;;;0.60;0.60;;;12.80;1.00;;;;;;5223738;28;20386;-32
2024/01/03 08:18:23;;;;;;;0.60;0.60;;;12.90;1.00;;;;;;5203287;28;20333;-32
2024/01/03 08:20:57;;;;;;;0.52;0.52;;;12.90;1.00;;;;;;5201902;28;20033;-32
2024/01/03 08:23:33;;;;;;;1.50;0.82;;;12.90;1.00;;;;;;5227366;28;20035;-32
2024/01/03 08:26:12;;;;;;;0.40;0.40;;;12.90;1.00;;;;;;5230556;28;20312;-32
2024/01/03 08:28:45;;;;;;;0.50;0.50;;;13.00;1.00;;;;;;5230399;28;20025;-31
2024/01/03 08:31:17;;;;;;;0.80;0.80;;;13.10;1.00;;;;;;5209463;28;20017;-32
2024/01/03 08:33:51;;;;;;;0.60;0.60;;;13.10;1.00;;;;;;5228706;28;20261;-33
2024/01/03 08:36:38;;;;;;;0.82;0.82;;;13.10;1.00;;;;;;5227738;28;20044;-33
2024/01/03 08:39:10;;;;;;;1.00;0.75;;;13.10;1.00;;;;;;5229828;28;20047;-31
2024/01/03 08:41:42;;;;;;;0.70;0.70;;;13.10;1.00;;;;;;5231431;28;20313;-31
2024/01/03 08:44:14;;;;;;;0.80;0.80;;;13.20;1.00;;;;;;5230718;28;20044;-34
2024/01/03 08:46:45;;;;;;;0.80;0.80;;;13.20;1.00;;;;;;5203967;28;20041;-32
2024/01/03 08:49:18;;;;;;;1.08;0.73;;;13.30;1.00;;;;;;5228907;28;20221;-32
2024/01/03 08:51:56;;;;;;;0.60;0.60;;;13.30;1.00;;;;;;5232751;28;20045;-32
2024/01/03 08:54:30;;;;;;;0.63;0.63;;;13.30;1.00;;;;;;5231447;28;20235;-31
2024/01/03 08:57:01;;;;;;;0.50;0.50;;;13.30;1.00;;;;;;5225091;28;20029;-34
2024/01/03 08:59:35;;;;;;;0.80;0.80;;;13.30;1.00;;;;;;5189004;28;20653;-31
2024/01/03 09:02:07;;;;;;;0.75;0.75;;;13.40;1.00;;;;;;5226983;28;20053;-32
2024/01/03 09:04:38;;;;;;;0.77;0.77;;;13.40;1.00;;;;;;5232237;28;20035;-32
2024/01/03 09:07:10;;;;;;;0.90;0.90;;;13.50;1.00;;;;;;5232196;28;20031;-31
2024/01/03 09:09:44;;;;;;;1.60;0.70;;;13.50;1.00;;;;;;5231764;28;20337;-33
2024/01/03 09:12:18;;;;;;;0.63;0.63;;;13.40;1.00;;;;;;5232977;28;20052;-33
2024/01/03 09:14:49;;;;;;;0.65;0.65;;;13.40;1.00;;;;;;5228626;28;20317;-33
2024/01/03 09:17:27;;;;;;;0.80;0.80;;;13.20;1.00;;;;;;5228874;28;20334;-35
2024/01/03 09:20:03;;;;;;;0.80;0.80;;;13.00;1.00;;;;;;5209988;28;20241;-31
2024/01/03 09:22:37;;;;;;;1.55;0.77;;;12.90;1.00;;;;;;5209189;28;20258;-31
2024/01/03 09:25:11;;;;;;;0.73;0.70;;;12.90;1.00;;;;;;5229401;28;20029;-32
2024/01/03 09:27:44;;;;;;;0.60;0.60;;;13.00;1.00;;;;;;5233272;28;20029;-32
2024/01/03 09:30:15;;;;;;;0.77;0.77;;;13.20;1.00;;;;;;5226863;28;20025;-31
2024/01/03 09:32:49;;;;;;;0.80;0.80;;;13.30;1.00;;;;;;5230315;28;20029;-31
2024/01/03 09:35:23;;;;;;;0.80;0.80;;;13.40;1.00;;;;;;5230009;28;20037;-32
2024/01/03 09:37:54;;;;;;;1.45;1.10;;;13.40;1.00;;;;;;5233066;28;20279;-31
2024/01/03 09:40:31;;;;;;;0.55;0.55;;;13.50;1.00;;;;;;5232734;28;20252;-32
2024/01/03 09:43:10;;;;;;;0.82;0.82;;;13.50;1.00;;;;;;5233303;28;20017;-33
2024/01/03 09:45:45;;;;;;;0.70;0.70;;;13.60;1.00;;;;;;5229210;28;20322;-32
2024/01/03 09:48:16;;;;;;;0.85;0.85;;;13.60;1.00;;;;;;5233073;28;20025;-32
2024/01/03 09:50:50;;;;;;;1.13;0.90;;;13.70;1.00;;;;;;5230419;28;20354;-32
2024/01/03 09:53:22;;;;;;;1.10;1.00;;;13.50;1.00;;;;;;5232980;28;20045;-31
2024/01/03 09:55:53;;;;;;;0.90;0.90;;;13.30;1.00;;;;;;5231739;28;20338;-31
2024/01/03 09:58:27;;;;;;;0.63;0.63;;;13.40;1.00;;;;;;5222336;28;20051;-31
2024/01/03 10:01:01;;;;;;;;;;;13.70;1.00;;;;;;5228701;28;20039;-33
2024/01/03 10:03:32;;;;;;;0.70;0.70;;;13.90;1.00;;;;;;5232928;28;19936;-33
2024/01/03 10:06:18;;;;;;;0.60;0.60;;;14.20;1.00;;;;;;5229785;28;20025;-32
2024/01/03 10:08:58;;;;;;;0.80;0.80;;;14.20;1.00;;;;;;5208295;28;20037;-31
2024/01/03 10:11:30;;;;;;;0.90;0.80;;;14.20;1.00;;;;;;5208116;28;20026;-31
2024/01/03 10:14:22;;;;;;;0.70;0.70;;;14.40;1.00;;;;;;5230603;28;20035;-31
2024/01/03 10:16:53;;;;;;;0.68;0.68;;;14.40;1.00;;;;;;5226625;28;20316;-32
2024/01/03 10:19:30;;;;;;;0.77;0.77;;;14.60;1.00;;;;;;5229743;28;20063;-32
2024/01/03 10:22:02;;;;;;;3.50;1.40;;;14.80;1.00;;;;;;5229502;28;20036;-32
2024/01/03 10:24:46;;;;;;;0.73;0.73;;;14.80;1.00;;;;;;5175310;28;20236;-37
2024/01/03 10:27:19;;;;;;;15.63;7.07;;;15.10;1.00;;;;;;5226028;28;20029;-31
2024/01/03 10:29:53;;;;;;;0.75;0.75;;;14.70;99.90;;;;;;5211784;28;20324;-31
2024/01/03 10:32:27;;;;;;;5.27;4.00;;;14.60;99.90;;;;;;5222796;28;20071;-31
2024/01/03 10:35:15;;;;;;;1.73;1.58;;;14.80;99.90;;;;;;5229052;28;20590;-33
2024/01/03 10:37:52;;;;;;;2.70;1.30;;;14.90;99.90;;;;;;5212716;28;20029;-32
2024/01/03 10:40:28;;;;;;;0.82;0.82;;;14.90;99.90;;;;;;5229204;28;20386;-32
2024/01/03 10:43:12;;;;;;;0.70;0.70;;;15.60;99.90;;;;;;5229544;28;20054;-32
2024/01/03 10:45:48;;;;;;;2.25;0.60;;;15.60;99.90;;;;;;5225367;28;20037;-32
2024/01/03 10:48:19;;;;;;;0.75;0.75;;;15.30;99.90;;;;;;5223126;28;20031;-32
2024/01/03 10:50:54;;;;;;;0.60;0.60;;;15.70;99.90;;;;;;5227572;28;20036;-31
2024/01/03 10:53:31;;;;;;;1.40;0.93;;;15.80;99.90;;;;;;5227052;28;20028;-31
2024/01/03 10:56:03;;;;;;;1.00;1.00;;;15.80;99.90;;;;;;5210376;28;20349;-31
2024/01/03 10:58:42;;;;;;;0.75;0.75;;;16.10;99.90;;;;;;5214577;28;20053;-33
2024/01/03 11:01:19;;;;;;;1.67;0.98;;;16.50;99.90;;;;;;5212547;28;20032;-30
2024/01/03 11:04:03;;;;;;;0.85;0.85;;;15.30;99.90;;;;;;5213654;28;20052;-31
2024/01/03 11:06:55;;;;;;;0.90;0.90;;;14.70;99.90;;;;;;5190061;28;20229;-36
2024/01/03 11:09:26;;;;;;;1.38;0.90;;;14.20;99.90;;;;;;5225137;28;20031;-33
2024/01/03 11:12:10;;;;;;;0.80;0.80;;;13.80;99.90;;;;;;5227882;28;20033;-32
2024/01/03 11:14:41;;;;;;;1.00;1.00;;;13.20;99.90;;;;;;5225300;28;20339;-33
2024/01/03 11:17:34;;;;;;;0.60;0.60;;;13.20;99.90;;;;;;5223999;28;20151;-32
2024/01/03 11:20:08;;;;;;;0.70;0.70;;;14.30;99.90;;;;;;5226093;28;20032;-32
2024/01/03 11:23:02;;;;;;;0.88;0.88;;;14.70;99.90;;;;;;5225560;28;20029;-32
2024/01/03 11:25:55;;;;;;;0.73;0.73;;;14.90;99.90;;;;;;5225926;28;20024;-32
2024/01/03 11:28:35;;;;;;;0.85;0.85;;;15.10;99.90;;;;;;5202583;28;20481;-31
2024/01/03 11:31:13;;;;;;;0.95;0.93;;;15.50;99.90;;;;;;5219234;28;20305;-31
2024/01/03 11:33:45;;;;;;;0.70;0.70;;;15.30;99.90;;;;;;5224575;28;20346;-32
2024/01/03 11:36:45;;;;;;;0.90;0.90;;;15.00;99.90;;;;;;5221542;28;20341;-30
2024/01/03 11:39:47;;;;;;;0.80;0.80;;;15.00;99.90;;;;;;5222270;28;20041;-30
2024/01/03 11:42:39;;;;;;;2.25;0.95;;;15.20;99.90;;;;;;5216781;28;20033;-32
2024/01/03 11:45:15;;;;;;;0.80;0.80;;;16.00;99.90;;;;;;5222268;28;20029;-32
2024/01/03 11:47:49;;;;;;;1.85;0.70;;;16.20;99.90;;;;;;5226391;28;20041;-31
2024/01/03 11:50:23;;;;;;;0.75;0.75;;;16.10;99.90;;;;;;5228077;28;20035;-32
2024/01/03 11:52:56;;;;;;;1.67;0.80;;;16.30;99.90;;;;;;5227680;28;20037;-32
2024/01/03 11:55:28;;;;;;;0.80;0.80;;;15.80;99.90;;;;;;5227127;28;20029;-32
2024/01/03 11:58:05;;;;;;;0.77;0.77;;;15.70;99.90;;;;;;5224088;28;20046;-32
2024/01/03 12:00:38;;;;;;;0.80;0.80;;;15.10;99.90;;;;;;5220819;28;20043;-32
2024/01/03 12:03:17;;;;;;;1.02;1.02;;;15.50;99.90;;;;;;5230409;28;20041;-32
2024/01/03 12:05:50;;;;;;;0.82;0.82;;;15.40;99.90;;;;;;5226695;28;20033;-31
2024/01/03 12:08:24;;;;;;;1.95;1.00;;;14.80;99.90;;;;;;5226769;28;20037;-31
2024/01/03 12:10:58;;;;;;;1.00;1.00;;;14.80;99.90;;;;;;5226740;28;20443;-31
2024/01/03 12:13:31;;;;;;;0.70;0.70;;;14.90;99.90;;;;;;5197988;28;20044;-37
2024/01/03 12:16:05;;;;;;;0.70;0.70;;;15.00;99.90;;;;;;5222960;28;20021;-33
2024/01/03 12:18:55;;;;;;;0.98;0.75;;;15.20;99.90;;;;;;5227189;28;20099;-32
2024/01/03 12:21:28;;;;;;;0.80;0.80;;;14.90;99.90;;;;;;5226619;28;20024;-32
2024/01/03 12:24:09;;;;;;;1.38;1.25;;;15.30;99.90;;;;;;5227342;28;20047;-31
2024/01/03 12:26:49;;;;;;;0.73;0.73;;;15.50;99.90;;;;;;5221146;28;20052;-32
2024/01/03 12:29:20;;;;;;;0.80;0.80;;;15.10;99.90;;;;;;5206780;28;20238;-32
2024/01/03 12:31:51;;;;;;;0.80;0.80;;;15.30;99.90;;;;;;5223785;28;20033;-33
2024/01/03 12:34:23;;;;;;;0.70;0.70;;;15.40;99.90;;;;;;5226331;28;20271;-32
2024/01/03 12:36:57;;;;;;;0.90;0.90;;;15.20;99.90;;;;;;5210051;28;20529;-33
2024/01/03 12:39:38;;;;;;;0.98;0.98;;;15.60;99.90;;;;;;5224238;28;20135;-33
2024/01/03 12:42:14;;;;;;;1.05;0.82;;;15.50;99.90;;;;;;5224701;28;20050;-32
2024/01/03 12:44:47;;;;;;;1.07;0.70;;;15.60;99.90;;;;;;5227016;28;20025;-32
2024/01/03 12:47:20;;;;;;;0.70;0.70;;;15.50;99.90;;;;;;5223425;28;20029;-34
2024/01/03 12:49:56;;;;;;;1.42;0.85;;;15.70;99.90;;;;;;5206790;28;20021;-31
2024/01/03 12:52:34;;;;;;;0.90;0.90;;;15.80;99.90;;;;;;5204467;28;20030;-31
2024/01/03 12:55:14;;;;;;;1.13;1.00;;;15.90;99.90;;;;;;5212381;28;20053;-31
2024/01/03 12:57:46;;;;;;;0.85;0.85;;;16.00;99.90;;;;;;5225833;28;20266;-32
2024/01/03 13:00:20;;;;;;;1.20;1.10;;;15.90;99.90;;;;;;5220250;28;20052;-33
2024/01/03 13:03:01;;;;;;;1.23;1.13;;;15.80;99.90;;;;;;5224235;28;20051;-30
2024/01/03 13:05:33;;;;;;;1.88;0.93;;;15.50;99.90;;;;;;5224695;28;20333;-33
2024/01/03 13:08:04;;;;;;;1.02;0.93;;;15.70;99.90;;;;;;5212888;28;20025;-33
2024/01/03 13:10:35;;;;;;;1.50;1.25;;;16.00;99.90;;;;;;5228436;28;20032;-33
2024/01/03 13:13:07;;;;;;;1.33;1.23;;;15.80;99.90;;;;;;5231141;28;20345;-32
2024/01/03 13:15:39;;;;;;;0.80;0.75;;;16.00;99.90;;;;;;5226875;28;20032;-32
2024/01/03 13:18:15;;;;;;;1.45;1.35;;;15.80;99.90;;;;;;5229797;28;20479;-31
2024/01/03 13:20:48;;;;;;;0.80;0.80;;;15.90;99.90;;;;;;5202481;28;20040;-37
2024/01/03 13:23:23;;;;;;;1.55;1.02;;;16.00;99.90;;;;;;5217716;28;20037;-32
2024/01/03 13:25:57;;;;;;;0.82;0.75;;;16.10;99.90;;;;;;5219839;28;20033;-31
2024/01/03 13:28:29;;;;;;;1.38;1.10;;;16.10;99.90;;;;;;5227370;28;20048;-31
2024/01/03 13:31:05;;;;;;;0.98;0.85;;;16.20;99.90;;;;;;5227872;28;20025;-31
2024/01/03 13:33:39;;;;;;;0.90;0.90;;;15.70;99.90;;;;;;5228183;28;20217;-31